createdAt,value
2018-12-11T00:00:24.983Z,5.70
2018-12-11T00:02:53.261Z,5.90
2018-12-11T00:05:21.836Z,5.60
2018-12-11T00:07:51.524Z,4.90
2018-12-11T00:10:19.804Z,5.60
2018-12-11T00:12:48.219Z,5.80
2018-12-11T00:15:17.296Z,5.70
2018-12-11T00:17:45.585Z,5.70
2018-12-11T00:20:13.951Z,5.60
2018-12-11T00:22:42.884Z,5.70
2018-12-11T00:25:11.421Z,5.50
2018-12-11T00:27:39.834Z,5.40
2018-12-11T00:30:08.685Z,5.40
2018-12-11T00:32:36.914Z,5.40
2018-12-11T00:35:06.136Z,5.20
2018-12-11T00:37:34.383Z,5.30
2018-12-11T00:40:02.714Z,5.20
2018-12-11T00:42:31.148Z,5.00
2018-12-11T00:44:59.408Z,5.10
2018-12-11T00:47:27.650Z,5.20
2018-12-11T00:49:56.011Z,4.90
2018-12-11T00:52:24.338Z,5.00
2018-12-11T00:54:53.605Z,5.00
2018-12-11T00:57:21.855Z,4.90
2018-12-11T00:59:51.690Z,4.80
2018-12-11T01:02:20.093Z,5.00
2018-12-11T01:04:48.550Z,4.90
2018-12-11T01:07:16.869Z,4.30
2018-12-11T01:09:45.313Z,5.10
2018-12-11T01:12:13.691Z,4.90
2018-12-11T01:14:41.982Z,4.80
2018-12-11T01:17:10.196Z,5.00
2018-12-11T01:19:38.589Z,5.00
2018-12-11T01:22:06.913Z,4.90
2018-12-11T01:24:35.292Z,5.00
2018-12-11T01:27:03.806Z,4.70
2018-12-11T01:29:32.050Z,4.70
2018-12-11T01:32:00.408Z,4.00
2018-12-11T01:34:28.734Z,4.80
2018-12-11T01:36:56.961Z,5.00
2018-12-11T01:39:25.190Z,4.90
2018-12-11T01:41:53.547Z,5.20
2018-12-11T01:44:21.855Z,4.90
2018-12-11T01:46:50.396Z,5.20
2018-12-11T01:49:18.802Z,4.90
2018-12-11T01:51:47.047Z,4.90
2018-12-11T01:54:15.307Z,5.00
2018-12-11T01:56:43.706Z,5.00
2018-12-11T01:59:11.899Z,4.80
2018-12-11T02:01:40.212Z,4.90
2018-12-11T02:04:08.619Z,5.00
2018-12-11T02:06:37.000Z,5.00
2018-12-11T02:09:06.648Z,4.10
2018-12-11T02:11:35.257Z,4.80
2018-12-11T02:14:03.668Z,4.90
2018-12-11T02:16:45.359Z,5.00
2018-12-11T02:19:13.878Z,5.00
2018-12-11T02:21:42.429Z,4.90
2018-12-11T02:24:10.790Z,5.00
2018-12-11T02:26:39.297Z,4.20
2018-12-11T02:29:07.918Z,4.50
2018-12-11T02:31:36.724Z,4.70
2018-12-11T02:34:05.974Z,4.20
2018-12-11T02:36:35.394Z,4.80
2018-12-11T02:39:07.103Z,4.10
2018-12-11T02:41:35.831Z,4.70
2018-12-11T02:44:04.908Z,4.80
2018-12-11T02:46:33.790Z,4.60
2018-12-11T02:49:07.188Z,4.40
2018-12-11T02:51:36.487Z,4.60
2018-12-11T02:54:05.390Z,4.70
2018-12-11T02:56:36.226Z,4.70
2018-12-11T02:59:07.186Z,4.50
2018-12-11T03:01:36.744Z,4.20
2018-12-11T03:04:06.242Z,4.10
2018-12-11T03:06:35.326Z,4.30
2018-12-11T03:09:06.796Z,4.10
2018-12-11T03:11:35.540Z,3.90
2018-12-11T03:14:04.870Z,4.30
2018-12-11T03:16:33.467Z,4.30
2018-12-11T03:19:02.152Z,4.10
2018-12-11T03:21:30.906Z,4.10
2018-12-11T03:24:00.482Z,4.30
2018-12-11T03:26:29.133Z,4.30
2018-12-11T03:28:58.701Z,4.60
2018-12-11T03:31:27.309Z,4.30
2018-12-11T03:33:56.293Z,4.60
2018-12-11T03:36:25.398Z,4.70
2018-12-11T03:38:54.886Z,4.30
2018-12-11T03:41:23.806Z,4.80
2018-12-11T03:43:52.624Z,4.50
2018-12-11T03:46:21.548Z,5.00
2018-12-11T03:48:51.144Z,4.80
2018-12-11T03:51:21.234Z,4.60
2018-12-11T03:53:50.260Z,4.90
2018-12-11T03:56:19.082Z,4.70
2018-12-11T03:58:48.071Z,4.50
2018-12-11T04:01:16.934Z,4.60
2018-12-11T04:03:46.141Z,4.50
2018-12-11T04:06:15.609Z,4.00
2018-12-11T04:08:44.868Z,4.50
2018-12-11T04:11:14.062Z,4.40
2018-12-11T04:13:43.680Z,4.70
2018-12-11T04:16:12.302Z,4.60
2018-12-11T04:18:40.910Z,4.70
2018-12-11T04:21:09.402Z,4.60
2018-12-11T04:23:37.824Z,4.70
2018-12-11T04:26:08.298Z,4.80
2018-12-11T04:28:36.793Z,5.00
2018-12-11T04:31:05.302Z,4.00
2018-12-11T04:33:33.989Z,4.60
2018-12-11T04:36:02.435Z,4.70
2018-12-11T04:38:30.942Z,4.70
2018-12-11T04:40:59.310Z,4.40
2018-12-11T04:43:27.888Z,4.50
2018-12-11T04:45:56.310Z,4.80
2018-12-11T04:48:24.659Z,4.70
2018-12-11T04:50:53.156Z,5.10
2018-12-11T04:53:21.625Z,5.00
2018-12-11T04:55:50.015Z,5.10
2018-12-11T04:58:18.567Z,5.30
2018-12-11T05:00:47.008Z,5.10
2018-12-11T05:03:15.475Z,5.30
2018-12-11T05:05:43.936Z,5.40
2018-12-11T05:08:15.615Z,5.60
2018-12-11T05:10:45.139Z,5.40
2018-12-11T05:13:13.518Z,5.60
2018-12-11T05:15:42.049Z,5.20
2018-12-11T05:18:10.451Z,5.80
2018-12-11T05:20:38.784Z,5.60
2018-12-11T05:23:07.408Z,5.80
2018-12-11T05:25:35.857Z,5.70
2018-12-11T05:28:04.984Z,5.70
2018-12-11T05:30:33.466Z,5.80
2018-12-11T05:33:02.121Z,5.60
2018-12-11T05:35:32.279Z,5.60
2018-12-11T05:38:00.729Z,5.90
2018-12-11T05:40:34.978Z,5.90
2018-12-11T05:43:04.407Z,5.90
2018-12-11T05:45:32.693Z,6.00
2018-12-11T05:48:01.283Z,6.00
2018-12-11T05:50:29.594Z,6.00
2018-12-11T05:52:57.868Z,6.30
2018-12-11T05:55:26.324Z,6.20
2018-12-11T05:57:55.240Z,6.00
2018-12-11T06:00:23.736Z,5.70
2018-12-11T06:02:52.238Z,6.00
2018-12-11T06:05:20.713Z,5.70
2018-12-11T06:07:49.277Z,5.80
2018-12-11T06:10:17.671Z,5.70
2018-12-11T06:12:46.053Z,5.80
2018-12-11T06:15:14.622Z,5.70
2018-12-11T06:17:43.051Z,4.90
2018-12-11T06:20:11.783Z,5.30
2018-12-11T06:22:40.443Z,5.60
2018-12-11T06:25:08.775Z,5.30
2018-12-11T06:27:37.233Z,5.50
2018-12-11T06:30:07.653Z,5.30
2018-12-11T06:32:36.236Z,4.50
2018-12-11T06:35:05.122Z,5.10
2018-12-11T06:37:33.763Z,4.80
2018-12-11T06:40:02.146Z,5.10
2018-12-11T06:42:30.831Z,5.10
2018-12-11T06:44:59.396Z,4.60
2018-12-11T06:47:28.014Z,4.30
2018-12-11T06:49:56.686Z,4.90
2018-12-11T06:52:25.117Z,4.70
2018-12-11T06:54:53.664Z,4.80
2018-12-11T06:57:22.617Z,4.60
2018-12-11T06:59:52.038Z,4.60
2018-12-11T07:02:21.420Z,4.90
2018-12-11T07:04:49.842Z,5.00
2018-12-11T07:07:18.364Z,4.80
2018-12-11T07:09:46.852Z,5.00
2018-12-11T07:12:16.091Z,4.30
2018-12-11T07:14:45.662Z,4.90
2018-12-11T07:17:14.197Z,5.00
2018-12-11T07:19:42.823Z,5.30
2018-12-11T07:22:11.221Z,5.10
2018-12-11T07:24:39.712Z,5.10
2018-12-11T07:27:08.132Z,5.30
2018-12-11T07:29:36.568Z,5.30
2018-12-11T07:32:05.262Z,5.10
2018-12-11T07:34:33.705Z,5.20
2018-12-11T07:37:02.856Z,5.30
2018-12-11T07:39:31.950Z,5.30
2018-12-11T07:42:00.507Z,5.50
2018-12-11T07:44:29.815Z,5.20
2018-12-11T07:46:58.465Z,5.60
2018-12-11T07:49:27.011Z,6.10
2018-12-11T07:51:55.526Z,6.00
2018-12-11T07:54:24.159Z,6.20
2018-12-11T07:56:52.791Z,6.10
2018-12-11T07:59:21.430Z,6.00
2018-12-11T08:01:49.978Z,6.00
2018-12-11T08:04:18.436Z,5.80
2018-12-11T08:06:47.218Z,6.20
2018-12-11T08:09:15.818Z,6.10
2018-12-11T08:11:44.347Z,5.70
2018-12-11T08:14:13.011Z,5.70
2018-12-11T08:16:42.224Z,5.60
2018-12-11T08:19:11.639Z,5.60
2018-12-11T08:21:40.148Z,5.80
2018-12-11T08:24:08.618Z,6.00
2018-12-11T08:26:37.262Z,5.80
2018-12-11T08:29:06.167Z,6.00
2018-12-11T08:31:34.694Z,6.40
2018-12-11T08:34:03.278Z,6.00
2018-12-11T08:36:31.721Z,6.20
2018-12-11T08:39:00.287Z,6.20
2018-12-11T08:41:28.768Z,6.20
2018-12-11T08:43:57.176Z,5.90
2018-12-11T08:46:25.760Z,6.00
2018-12-11T08:48:54.258Z,6.30
2018-12-11T08:51:22.811Z,5.70
2018-12-11T08:53:51.234Z,6.50
2018-12-11T08:56:19.878Z,6.50
2018-12-11T08:58:48.436Z,6.20
2018-12-11T09:01:17.022Z,5.70
2018-12-11T09:03:45.555Z,6.30
2018-12-11T09:06:14.278Z,6.40
2018-12-11T09:08:42.946Z,6.70
2018-12-11T09:11:11.590Z,6.60
2018-12-11T09:13:40.215Z,6.30
2018-12-11T09:16:08.815Z,6.80
2018-12-11T09:18:37.918Z,6.70
2018-12-11T09:21:07.180Z,6.80
2018-12-11T09:23:36.102Z,6.70
2018-12-11T09:26:04.747Z,6.70
2018-12-11T09:28:33.367Z,6.50
2018-12-11T09:31:02.369Z,6.60
2018-12-11T09:33:30.880Z,6.50
2018-12-11T09:36:00.415Z,6.70
2018-12-11T09:38:28.804Z,6.40
2018-12-11T09:40:57.183Z,7.00
2018-12-11T09:43:25.765Z,6.70
2018-12-11T09:45:55.553Z,7.10
2018-12-11T09:48:24.673Z,7.20
2018-12-11T09:50:53.051Z,6.80
2018-12-11T09:53:22.405Z,7.20
2018-12-11T09:55:51.210Z,6.50
2018-12-11T09:58:19.786Z,7.10
2018-12-11T10:00:49.024Z,7.50
2018-12-11T10:03:17.454Z,7.60
2018-12-11T10:05:46.049Z,7.50
2018-12-11T10:08:15.887Z,7.40
2018-12-11T10:10:44.437Z,7.90
2018-12-11T10:13:12.963Z,7.70
2018-12-11T10:15:41.499Z,7.50
2018-12-11T10:18:10.166Z,8.10
2018-12-11T10:20:38.766Z,8.20
2018-12-11T10:23:07.709Z,8.20
2018-12-11T10:25:37.024Z,8.70
2018-12-11T10:28:06.287Z,8.20
2018-12-11T10:30:40.598Z,8.70
2018-12-11T10:33:09.038Z,8.20
2018-12-11T10:35:37.500Z,8.80
2018-12-11T10:38:06.154Z,8.90
2018-12-11T10:40:35.453Z,9.00
2018-12-11T10:43:04.205Z,9.20
2018-12-11T10:45:34.825Z,8.90
2018-12-11T10:48:03.677Z,9.00
2018-12-11T10:50:32.207Z,8.90
2018-12-11T10:53:01.915Z,8.70
2018-12-11T10:55:31.633Z,8.80
2018-12-11T10:58:00.192Z,9.00
2018-12-11T11:00:34.771Z,8.90
2018-12-11T11:03:04.852Z,8.80
2018-12-11T11:05:33.577Z,8.60
2018-12-11T11:08:02.320Z,8.90
2018-12-11T11:10:31.487Z,9.20
2018-12-11T11:12:59.978Z,8.80
2018-12-11T11:15:28.660Z,8.80
2018-12-11T11:17:57.182Z,10.00
2018-12-11T11:20:25.795Z,9.40
2018-12-11T11:22:55.236Z,10.10
2018-12-11T11:25:23.777Z,10.50
2018-12-11T11:27:52.220Z,10.00
2018-12-11T11:30:20.721Z,9.90
2018-12-11T11:32:49.232Z,10.10
2018-12-11T11:35:17.924Z,10.20
2018-12-11T11:37:46.259Z,10.60
2018-12-11T11:40:20.317Z,10.30
2018-12-11T11:42:48.916Z,10.50
2018-12-11T11:45:17.510Z,10.70
2018-12-11T11:47:46.092Z,10.30
2018-12-11T11:50:16.820Z,10.70
2018-12-11T11:52:45.440Z,9.90
2018-12-11T11:55:14.650Z,10.50
2018-12-11T11:57:43.859Z,10.00
2018-12-11T12:00:14.960Z,10.10
2018-12-11T12:02:43.336Z,10.10
2018-12-11T12:05:12.960Z,10.00
2018-12-11T12:07:41.662Z,10.10
2018-12-11T12:10:11.213Z,9.50
2018-12-11T12:12:40.670Z,10.00
2018-12-11T12:15:09.922Z,10.20
2018-12-11T12:17:38.378Z,10.10
2018-12-11T12:20:10.282Z,10.50
2018-12-11T12:22:38.702Z,10.70
2018-12-11T12:25:08.146Z,10.90
2018-12-11T12:27:36.708Z,11.00
2018-12-11T12:30:06.973Z,11.40
2018-12-11T12:32:35.560Z,11.10
2018-12-11T12:35:05.053Z,11.40
2018-12-11T12:37:33.678Z,10.60
2018-12-11T12:40:02.780Z,11.00
2018-12-11T12:42:31.395Z,11.10
2018-12-11T12:45:00.416Z,10.20
2018-12-11T12:47:28.894Z,11.00
2018-12-11T12:49:57.524Z,10.40
2018-12-11T12:52:27.085Z,10.30
2018-12-11T12:54:56.114Z,10.20
2018-12-11T12:57:25.003Z,10.10
2018-12-11T12:59:53.555Z,10.20
2018-12-11T13:02:22.030Z,10.40
2018-12-11T13:04:50.590Z,10.40
2018-12-11T13:07:19.071Z,10.20
2018-12-11T13:09:47.564Z,9.90
2018-12-11T13:12:16.209Z,10.10
2018-12-11T13:17:24.479Z,9.80
2018-12-11T13:19:53.510Z,10.00
2018-12-11T13:22:21.790Z,9.60
2018-12-11T13:24:51.502Z,9.50
2018-12-11T13:27:19.761Z,9.10
2018-12-11T13:29:48.073Z,9.60
2018-12-11T13:32:16.450Z,9.70
2018-12-11T13:34:44.718Z,9.50
2018-12-11T13:37:13.068Z,9.50
2018-12-11T13:39:41.458Z,9.50
2018-12-11T13:42:09.931Z,9.50
2018-12-11T13:44:38.237Z,10.00
2018-12-11T13:47:07.032Z,10.20
2018-12-11T13:49:35.421Z,10.60
2018-12-11T13:52:03.776Z,10.00
2018-12-11T13:54:32.193Z,10.60
2018-12-11T13:57:00.707Z,10.40
2018-12-11T13:59:29.001Z,11.40
2018-12-11T14:01:57.365Z,10.70
2018-12-11T14:04:25.758Z,11.50
2018-12-11T14:06:54.118Z,11.00
2018-12-11T14:09:28.176Z,10.60
2018-12-11T14:11:56.483Z,10.60
2018-12-11T14:14:24.787Z,10.90
2018-12-11T14:16:53.587Z,10.60
2018-12-11T14:19:21.974Z,10.50
2018-12-11T14:21:51.380Z,10.70
2018-12-11T14:24:19.895Z,10.10
2018-12-11T14:26:48.144Z,10.40
2018-12-11T14:29:16.617Z,10.40
2018-12-11T14:31:45.171Z,10.60
2018-12-11T14:34:13.754Z,10.70
2018-12-11T14:36:41.982Z,10.10
2018-12-11T14:39:10.380Z,10.20
2018-12-11T14:41:38.758Z,10.20
2018-12-11T14:44:07.077Z,9.60
2018-12-11T14:46:35.825Z,9.60
2018-12-11T14:49:04.365Z,9.20
2018-12-11T14:51:32.625Z,9.80
2018-12-11T14:54:01.152Z,9.80
2018-12-11T14:56:29.459Z,9.70
2018-12-11T14:58:57.750Z,9.70
2018-12-11T15:01:26.414Z,9.90
2018-12-11T15:03:54.688Z,10.40
2018-12-11T15:06:22.988Z,10.50
2018-12-11T15:08:54.394Z,10.30
2018-12-11T15:11:22.735Z,10.30
2018-12-11T15:13:52.197Z,10.00
2018-12-11T15:16:20.829Z,10.20
2018-12-11T15:18:49.685Z,10.20
2018-12-11T15:21:18.109Z,10.20
2018-12-11T15:23:46.491Z,10.30
2018-12-11T15:26:14.876Z,10.20
2018-12-11T15:28:43.124Z,10.00
2018-12-11T15:31:13.295Z,9.60
2018-12-11T15:33:41.965Z,9.20
2018-12-11T15:36:10.300Z,9.70
2018-12-11T15:38:38.601Z,9.50
2018-12-11T15:41:07.009Z,9.80
2018-12-11T15:43:35.278Z,9.50
2018-12-11T15:46:03.607Z,9.00
2018-12-11T15:48:32.105Z,10.00
2018-12-11T15:51:00.448Z,8.90
2018-12-11T15:53:28.772Z,9.50
2018-12-11T15:55:57.205Z,9.50
2018-12-11T15:58:25.816Z,8.80
2018-12-11T16:00:54.119Z,8.90
2018-12-11T16:03:22.530Z,9.20
2018-12-11T16:05:51.919Z,8.90
2018-12-11T16:08:20.181Z,8.50
2018-12-11T16:10:48.705Z,8.90
2018-12-11T16:13:16.951Z,9.10
2018-12-11T16:15:45.309Z,9.20
2018-12-11T16:18:13.565Z,9.10
2018-12-11T16:20:42.943Z,9.60
2018-12-11T16:23:11.520Z,8.40
2018-12-11T16:25:39.947Z,9.20
2018-12-11T16:28:08.290Z,9.20
2018-12-11T16:30:36.779Z,9.00
2018-12-11T16:33:05.080Z,9.20
2018-12-11T16:35:33.401Z,9.30
2018-12-11T16:38:01.777Z,9.60
2018-12-11T16:40:30.076Z,9.40
2018-12-11T16:42:58.431Z,9.40
2018-12-11T16:45:27.209Z,9.30
2018-12-11T16:47:55.471Z,8.80
2018-12-11T16:50:23.708Z,9.30
2018-12-11T16:52:53.099Z,8.90
2018-12-11T16:55:21.490Z,8.70
2018-12-11T16:57:50.106Z,8.90
2018-12-11T17:00:31.821Z,8.80
2018-12-11T17:03:00.249Z,8.60
2018-12-11T17:05:28.765Z,8.40
2018-12-11T17:07:57.483Z,8.30
2018-12-11T17:10:25.813Z,8.70
2018-12-11T17:12:54.488Z,8.70
2018-12-11T17:15:25.589Z,8.80
2018-12-11T17:17:55.093Z,8.60
2018-12-11T17:20:24.094Z,8.30
2018-12-11T17:22:53.853Z,8.30
2018-12-11T17:25:22.292Z,8.40
2018-12-11T17:27:50.893Z,7.90
2018-12-11T17:30:19.330Z,8.40
2018-12-11T17:32:47.998Z,8.30
2018-12-11T17:35:16.433Z,8.50
2018-12-11T17:37:44.920Z,8.70
2018-12-11T17:40:13.645Z,8.60
2018-12-11T17:42:42.040Z,8.20
2018-12-11T17:45:10.727Z,8.60
2018-12-11T17:47:39.349Z,8.70
2018-12-11T17:50:08.838Z,8.70
2018-12-11T17:52:37.327Z,8.10
2018-12-11T17:55:06.038Z,8.80
2018-12-11T17:57:34.417Z,8.60
2018-12-11T18:00:03.294Z,7.70
2018-12-11T18:02:36.399Z,8.30
2018-12-11T18:05:06.696Z,8.50
2018-12-11T18:07:36.434Z,7.80
2018-12-11T18:10:06.625Z,8.60
2018-12-11T18:12:36.001Z,8.60
2018-12-11T18:15:07.534Z,8.20
2018-12-11T18:17:36.190Z,8.70
2018-12-11T18:20:06.363Z,8.90
2018-12-11T18:22:35.789Z,8.90
2018-12-11T18:25:06.115Z,8.70
2018-12-11T18:27:35.206Z,8.90
2018-12-11T18:30:07.180Z,8.60
2018-12-11T18:32:36.108Z,8.70
2018-12-11T18:35:05.934Z,8.60
2018-12-11T18:37:34.502Z,9.00
2018-12-11T18:40:03.704Z,8.50
2018-12-11T18:42:32.397Z,8.50
2018-12-11T18:45:03.371Z,8.50
2018-12-11T18:47:32.370Z,8.60
2018-12-11T18:50:00.703Z,8.60
2018-12-11T18:52:31.900Z,8.60
2018-12-11T18:55:00.391Z,8.60
2018-12-11T18:57:28.999Z,8.60
2018-12-11T18:59:58.659Z,8.50
2018-12-11T19:02:27.111Z,8.70
2018-12-11T19:04:55.734Z,8.10
2018-12-11T19:07:24.920Z,8.50
2018-12-11T19:09:53.428Z,8.60
2018-12-11T19:12:22.226Z,8.30
2018-12-11T19:14:50.845Z,8.20
2018-12-11T19:17:19.242Z,8.20
2018-12-11T19:19:48.749Z,7.60
2018-12-11T19:22:17.249Z,8.30
2018-12-11T19:24:53.126Z,8.30
2018-12-11T19:27:23.671Z,8.50
2018-12-11T19:29:52.235Z,8.50
2018-12-11T19:32:21.092Z,8.50
2018-12-11T19:34:49.650Z,8.70
2018-12-11T19:37:18.810Z,8.30
2018-12-11T19:39:47.304Z,8.40
2018-12-11T19:42:15.939Z,8.40
2018-12-11T19:44:44.758Z,8.60
2018-12-11T19:47:13.665Z,7.90
2018-12-11T19:49:42.396Z,7.60
2018-12-11T19:52:10.919Z,8.30
2018-12-11T19:54:40.075Z,8.00
2018-12-11T19:57:09.054Z,8.50
2018-12-11T19:59:38.605Z,8.40
2018-12-11T20:02:07.711Z,7.90
2018-12-11T20:04:36.862Z,8.10
2018-12-11T20:07:07.411Z,8.10
2018-12-11T20:09:38.044Z,8.10
2018-12-11T20:12:06.786Z,8.10
2018-12-11T20:14:35.375Z,7.90
2018-12-11T20:17:05.153Z,8.00
2018-12-11T20:19:36.903Z,7.70
2018-12-11T20:22:05.626Z,7.60
2018-12-11T20:24:34.336Z,7.80
2018-12-11T20:27:03.085Z,7.10
2018-12-11T20:29:32.268Z,7.10
2018-12-11T20:32:00.679Z,7.80
2018-12-11T20:34:29.499Z,7.10
2018-12-11T20:37:00.511Z,7.20
2018-12-11T20:39:29.037Z,7.20
2018-12-11T20:41:57.551Z,7.60
2018-12-11T20:44:27.045Z,7.70
2018-12-11T20:46:55.819Z,7.30
2018-12-11T20:49:24.815Z,7.90
2018-12-11T20:51:56.312Z,7.70
2018-12-11T20:54:25.396Z,7.50
2018-12-11T20:56:54.610Z,7.70
2018-12-11T20:59:23.698Z,7.10
2018-12-11T21:01:52.454Z,7.80
2018-12-11T21:04:21.103Z,7.20
2018-12-11T21:06:50.235Z,7.50
2018-12-11T21:09:18.906Z,6.60
2018-12-11T21:11:47.379Z,7.40
2018-12-11T21:14:16.890Z,7.30
2018-12-11T21:16:46.679Z,7.80
2018-12-11T21:19:17.105Z,7.90
2018-12-11T21:21:45.554Z,7.60
2018-12-11T21:24:14.634Z,6.80
2018-12-11T21:26:43.468Z,7.10
2018-12-11T21:29:13.337Z,7.60
2018-12-11T21:31:45.624Z,7.40
2018-12-11T21:34:14.985Z,7.30
2018-12-11T21:36:43.696Z,7.20
2018-12-11T21:39:13.901Z,7.40
2018-12-11T21:41:42.313Z,7.00
2018-12-11T21:44:11.371Z,7.40
2018-12-11T21:46:40.045Z,7.20
2018-12-11T21:49:09.815Z,7.50
2018-12-11T21:51:38.989Z,7.00
2018-12-11T21:54:07.842Z,7.30
2018-12-11T21:56:36.431Z,7.00
2018-12-11T21:59:05.643Z,7.10
2018-12-11T22:01:34.162Z,7.30
2018-12-11T22:04:04.286Z,6.90
2018-12-11T22:06:34.464Z,6.90
2018-12-11T22:09:06.423Z,6.80
2018-12-11T22:11:39.215Z,7.30
2018-12-11T22:14:07.753Z,7.00
2018-12-11T22:16:37.377Z,7.00
2018-12-11T22:19:06.202Z,7.00
2018-12-11T22:21:35.817Z,6.80
2018-12-11T22:24:08.353Z,6.70
2018-12-11T22:26:38.263Z,6.90
2018-12-11T22:29:07.007Z,6.70
2018-12-11T22:31:36.772Z,6.90
2018-12-11T22:34:07.238Z,6.70
2018-12-11T22:36:36.523Z,6.90
2018-12-11T22:39:09.217Z,6.60
2018-12-11T22:41:37.963Z,6.40
2018-12-11T22:44:07.153Z,6.40
2018-12-11T22:46:36.042Z,6.40
2018-12-11T22:49:06.121Z,6.40
2018-12-11T22:51:35.465Z,6.20
2018-12-11T22:54:05.580Z,6.40
2018-12-11T22:56:35.275Z,6.40
2018-12-11T22:59:03.983Z,6.20
2018-12-11T23:01:36.596Z,5.70
2018-12-11T23:04:06.346Z,5.80
2018-12-11T23:06:40.426Z,5.80
2018-12-11T23:09:10.476Z,5.70
2018-12-11T23:11:42.594Z,5.70
2018-12-11T23:14:12.094Z,4.90
2018-12-11T23:16:42.676Z,5.30
2018-12-11T23:19:11.159Z,5.40
2018-12-11T23:21:40.442Z,5.30
2018-12-11T23:24:08.974Z,5.40
2018-12-11T23:26:37.529Z,5.20
2018-12-11T23:29:07.758Z,5.10
2018-12-11T23:31:37.110Z,5.40
2018-12-11T23:34:05.775Z,5.20
2018-12-11T23:36:35.086Z,4.90
2018-12-11T23:39:05.883Z,5.10
2018-12-11T23:41:35.867Z,4.90
2018-12-11T23:44:09.197Z,4.10
2018-12-11T23:46:38.024Z,4.60
2018-12-11T23:49:08.837Z,4.80
2018-12-11T23:51:37.511Z,4.80
2018-12-11T23:54:07.282Z,4.80
2018-12-11T23:56:35.829Z,4.60
2018-12-11T23:59:06.437Z,4.80
